sensor_id;sensor_type;location;lat;lon;timestamp;P1;durP1;ratioP1;P2;durP2;ratioP2
11699;SDS011;5906;51.660;6.674;2022-08-25T00:01:28;4.60;;;3.97;;
11699;SDS011;5906;51.660;6.674;2022-08-25T00:03:58;5.10;;;4.30;;
11699;SDS011;5906;51.660;6.674;2022-08-25T00:06:26;6.00;;;4.50;;
11699;SDS011;5906;51.660;6.674;2022-08-25T00:08:54;4.70;;;4.20;;
11699;SDS011;5906;51.660;6.674;2022-08-25T00:11:25;5.47;;;4.20;;
11699;SDS011;5906;51.660;6.674;2022-08-25T00:13:56;8.10;;;4.00;;
11699;SDS011;5906;51.660;6.674;2022-08-25T00:16:25;9.20;;;4.67;;
11699;SDS011;5906;51.660;6.674;2022-08-25T00:18:59;6.90;;;4.70;;
11699;SDS011;5906;51.660;6.674;2022-08-25T00:21:29;6.43;;;4.40;;
11699;SDS011;5906;51.660;6.674;2022-08-25T00:23:57;8.97;;;4.67;;
11699;SDS011;5906;51.660;6.674;2022-08-25T00:26:25;5.60;;;4.30;;
11699;SDS011;5906;51.660;6.674;2022-08-25T00:28:53;5.60;;;4.67;;
11699;SDS011;5906;51.660;6.674;2022-08-25T00:31:29;5.30;;;3.70;;
11699;SDS011;5906;51.660;6.674;2022-08-25T00:34:05;6.67;;;4.37;;
11699;SDS011;5906;51.660;6.674;2022-08-25T00:36:34;7.07;;;4.70;;
11699;SDS011;5906;51.660;6.674;2022-08-25T00:39:00;7.90;;;4.90;;
11699;SDS011;5906;51.660;6.674;2022-08-25T00:41:27;6.63;;;4.47;;
11699;SDS011;5906;51.660;6.674;2022-08-25T00:43:56;5.70;;;4.40;;
11699;SDS011;5906;51.660;6.674;2022-08-25T00:46:33;6.00;;;4.60;;
11699;SDS011;5906;51.660;6.674;2022-08-25T00:49:06;10.03;;;4.30;;
11699;SDS011;5906;51.660;6.674;2022-08-25T00:54:44;4.90;;;4.40;;
11699;SDS011;5906;51.660;6.674;2022-08-25T00:57:17;5.47;;;4.00;;
11699;SDS011;5906;51.660;6.674;2022-08-25T01:00:00;5.43;;;4.93;;
11699;SDS011;5906;51.660;6.674;2022-08-25T01:02:33;8.50;;;4.77;;
11699;SDS011;5906;51.660;6.674;2022-08-25T01:04:59;8.03;;;4.80;;
11699;SDS011;5906;51.660;6.674;2022-08-25T01:07:26;8.40;;;5.10;;
11699;SDS011;5906;51.660;6.674;2022-08-25T01:09:53;6.90;;;4.97;;
11699;SDS011;5906;51.660;6.674;2022-08-25T01:12:20;5.60;;;4.10;;
11699;SDS011;5906;51.660;6.674;2022-08-25T01:14:48;6.60;;;4.90;;
11699;SDS011;5906;51.660;6.674;2022-08-25T01:17:16;8.70;;;4.63;;
11699;SDS011;5906;51.660;6.674;2022-08-25T01:19:43;6.20;;;4.73;;
11699;SDS011;5906;51.660;6.674;2022-08-25T01:22:10;5.17;;;4.27;;
11699;SDS011;5906;51.660;6.674;2022-08-25T01:24:49;5.73;;;4.50;;
11699;SDS011;5906;51.660;6.674;2022-08-25T01:27:32;6.00;;;5.00;;
11699;SDS011;5906;51.660;6.674;2022-08-25T01:29:59;6.40;;;4.70;;
11699;SDS011;5906;51.660;6.674;2022-08-25T01:32:26;8.40;;;4.77;;
11699;SDS011;5906;51.660;6.674;2022-08-25T01:34:52;12.93;;;4.60;;
11699;SDS011;5906;51.660;6.674;2022-08-25T01:37:20;6.93;;;4.97;;
11699;SDS011;5906;51.660;6.674;2022-08-25T01:39:46;8.20;;;4.83;;
11699;SDS011;5906;51.660;6.674;2022-08-25T01:45:14;21.27;;;5.00;;
11699;SDS011;5906;51.660;6.674;2022-08-25T01:47:41;6.23;;;4.67;;
11699;SDS011;5906;51.660;6.674;2022-08-25T01:50:08;9.43;;;5.10;;
11699;SDS011;5906;51.660;6.674;2022-08-25T01:52:46;7.33;;;4.83;;
11699;SDS011;5906;51.660;6.674;2022-08-25T01:55:17;6.53;;;5.00;;
11699;SDS011;5906;51.660;6.674;2022-08-25T01:57:43;9.87;;;5.03;;
11699;SDS011;5906;51.660;6.674;2022-08-25T02:00:11;5.60;;;4.63;;
11699;SDS011;5906;51.660;6.674;2022-08-25T02:02:40;6.30;;;4.90;;
11699;SDS011;5906;51.660;6.674;2022-08-25T02:05:09;5.70;;;4.53;;
11699;SDS011;5906;51.660;6.674;2022-08-25T02:07:39;5.87;;;5.27;;
11699;SDS011;5906;51.660;6.674;2022-08-25T02:10:08;11.43;;;6.17;;
11699;SDS011;5906;51.660;6.674;2022-08-25T02:12:36;5.90;;;5.00;;
11699;SDS011;5906;51.660;6.674;2022-08-25T02:15:04;8.80;;;5.17;;
11699;SDS011;5906;51.660;6.674;2022-08-25T02:17:33;5.27;;;4.30;;
11699;SDS011;5906;51.660;6.674;2022-08-25T02:20:03;9.07;;;5.53;;
11699;SDS011;5906;51.660;6.674;2022-08-25T02:22:32;7.43;;;4.90;;
11699;SDS011;5906;51.660;6.674;2022-08-25T02:24:59;7.30;;;5.10;;
11699;SDS011;5906;51.660;6.674;2022-08-25T02:27:26;10.23;;;5.93;;
11699;SDS011;5906;51.660;6.674;2022-08-25T02:29:53;7.30;;;5.50;;
11699;SDS011;5906;51.660;6.674;2022-08-25T02:32:20;11.10;;;5.53;;
11699;SDS011;5906;51.660;6.674;2022-08-25T02:34:46;8.70;;;5.43;;
11699;SDS011;5906;51.660;6.674;2022-08-25T02:37:13;7.70;;;4.80;;
11699;SDS011;5906;51.660;6.674;2022-08-25T02:39:40;9.63;;;6.07;;
11699;SDS011;5906;51.660;6.674;2022-08-25T02:42:07;8.20;;;5.80;;
11699;SDS011;5906;51.660;6.674;2022-08-25T02:44:33;6.67;;;5.30;;
11699;SDS011;5906;51.660;6.674;2022-08-25T02:47:00;9.50;;;4.83;;
11699;SDS011;5906;51.660;6.674;2022-08-25T02:49:28;5.77;;;4.67;;
11699;SDS011;5906;51.660;6.674;2022-08-25T02:51:55;6.13;;;5.50;;
11699;SDS011;5906;51.660;6.674;2022-08-25T02:54:23;9.33;;;5.70;;
11699;SDS011;5906;51.660;6.674;2022-08-25T02:56:51;8.50;;;5.63;;
11699;SDS011;5906;51.660;6.674;2022-08-25T02:59:18;7.53;;;4.90;;
11699;SDS011;5906;51.660;6.674;2022-08-25T03:01:44;6.83;;;5.27;;
11699;SDS011;5906;51.660;6.674;2022-08-25T03:04:11;7.90;;;5.67;;
11699;SDS011;5906;51.660;6.674;2022-08-25T03:06:38;12.00;;;5.40;;
11699;SDS011;5906;51.660;6.674;2022-08-25T03:09:05;5.97;;;4.70;;
11699;SDS011;5906;51.660;6.674;2022-08-25T03:11:33;8.07;;;5.83;;
11699;SDS011;5906;51.660;6.674;2022-08-25T03:14:00;6.77;;;4.73;;
11699;SDS011;5906;51.660;6.674;2022-08-25T03:16:26;7.77;;;4.93;;
11699;SDS011;5906;51.660;6.674;2022-08-25T03:18:53;7.43;;;5.70;;
11699;SDS011;5906;51.660;6.674;2022-08-25T03:21:21;9.23;;;5.80;;
11699;SDS011;5906;51.660;6.674;2022-08-25T03:23:47;6.30;;;5.40;;
11699;SDS011;5906;51.660;6.674;2022-08-25T03:26:14;6.70;;;4.77;;
11699;SDS011;5906;51.660;6.674;2022-08-25T03:29:00;9.83;;;5.27;;
11699;SDS011;5906;51.660;6.674;2022-08-25T03:31:31;7.43;;;5.70;;
11699;SDS011;5906;51.660;6.674;2022-08-25T03:33:58;7.00;;;5.17;;
11699;SDS011;5906;51.660;6.674;2022-08-25T03:36:26;8.67;;;5.20;;
11699;SDS011;5906;51.660;6.674;2022-08-25T03:38:53;6.43;;;4.70;;
11699;SDS011;5906;51.660;6.674;2022-08-25T03:41:21;7.27;;;5.37;;
11699;SDS011;5906;51.660;6.674;2022-08-25T03:43:53;8.70;;;5.37;;
11699;SDS011;5906;51.660;6.674;2022-08-25T03:46:22;9.03;;;5.67;;
11699;SDS011;5906;51.660;6.674;2022-08-25T03:48:51;6.23;;;5.63;;
11699;SDS011;5906;51.660;6.674;2022-08-25T03:51:19;8.90;;;5.23;;
11699;SDS011;5906;51.660;6.674;2022-08-25T03:53:48;7.33;;;5.03;;
11699;SDS011;5906;51.660;6.674;2022-08-25T03:56:17;7.77;;;5.47;;
11699;SDS011;5906;51.660;6.674;2022-08-25T03:58:44;8.03;;;4.90;;
11699;SDS011;5906;51.660;6.674;2022-08-25T04:01:11;7.30;;;5.40;;
11699;SDS011;5906;51.660;6.674;2022-08-25T04:03:40;10.00;;;5.60;;
11699;SDS011;5906;51.660;6.674;2022-08-25T04:06:07;20.30;;;5.57;;
11699;SDS011;5906;51.660;6.674;2022-08-25T04:08:35;6.17;;;5.07;;
11699;SDS011;5906;51.660;6.674;2022-08-25T04:11:06;8.67;;;4.90;;
11699;SDS011;5906;51.660;6.674;2022-08-25T04:13:44;9.37;;;4.97;;
11699;SDS011;5906;51.660;6.674;2022-08-25T04:16:16;5.77;;;5.07;;
11699;SDS011;5906;51.660;6.674;2022-08-25T04:18:48;7.40;;;5.20;;
11699;SDS011;5906;51.660;6.674;2022-08-25T04:21:16;6.93;;;5.00;;
11699;SDS011;5906;51.660;6.674;2022-08-25T04:23:44;7.50;;;5.17;;
11699;SDS011;5906;51.660;6.674;2022-08-25T04:26:14;6.43;;;5.17;;
11699;SDS011;5906;51.660;6.674;2022-08-25T04:28:44;10.50;;;5.10;;
11699;SDS011;5906;51.660;6.674;2022-08-25T04:31:12;6.07;;;4.73;;
11699;SDS011;5906;51.660;6.674;2022-08-25T04:33:40;9.10;;;5.50;;
11699;SDS011;5906;51.660;6.674;2022-08-25T04:36:08;7.33;;;5.30;;
11699;SDS011;5906;51.660;6.674;2022-08-25T04:38:38;8.13;;;4.93;;
11699;SDS011;5906;51.660;6.674;2022-08-25T04:41:06;5.50;;;4.77;;
11699;SDS011;5906;51.660;6.674;2022-08-25T04:43:36;7.53;;;4.73;;
11699;SDS011;5906;51.660;6.674;2022-08-25T04:46:05;4.93;;;4.33;;
11699;SDS011;5906;51.660;6.674;2022-08-25T04:48:34;6.87;;;5.83;;
11699;SDS011;5906;51.660;6.674;2022-08-25T04:51:05;8.77;;;5.40;;
11699;SDS011;5906;51.660;6.674;2022-08-25T04:53:33;7.67;;;4.87;;
11699;SDS011;5906;51.660;6.674;2022-08-25T04:56:00;8.27;;;4.87;;
11699;SDS011;5906;51.660;6.674;2022-08-25T04:58:29;7.27;;;5.13;;
11699;SDS011;5906;51.660;6.674;2022-08-25T05:01:03;8.60;;;5.47;;
11699;SDS011;5906;51.660;6.674;2022-08-25T05:03:31;10.50;;;5.00;;
11699;SDS011;5906;51.660;6.674;2022-08-25T05:05:58;14.90;;;5.47;;
11699;SDS011;5906;51.660;6.674;2022-08-25T05:08:25;6.10;;;4.80;;
11699;SDS011;5906;51.660;6.674;2022-08-25T05:10:52;6.10;;;4.90;;
11699;SDS011;5906;51.660;6.674;2022-08-25T05:13:22;7.63;;;5.13;;
11699;SDS011;5906;51.660;6.674;2022-08-25T05:15:52;8.13;;;5.77;;
11699;SDS011;5906;51.660;6.674;2022-08-25T05:18:26;9.90;;;4.87;;
11699;SDS011;5906;51.660;6.674;2022-08-25T05:20:55;7.47;;;5.17;;
11699;SDS011;5906;51.660;6.674;2022-08-25T05:23:23;10.27;;;5.53;;
11699;SDS011;5906;51.660;6.674;2022-08-25T05:25:50;8.83;;;5.37;;
11699;SDS011;5906;51.660;6.674;2022-08-25T05:28:18;8.03;;;5.37;;
11699;SDS011;5906;51.660;6.674;2022-08-25T05:30:45;8.10;;;5.10;;
11699;SDS011;5906;51.660;6.674;2022-08-25T05:33:15;7.13;;;5.50;;
11699;SDS011;5906;51.660;6.674;2022-08-25T05:35:43;7.23;;;4.87;;
11699;SDS011;5906;51.660;6.674;2022-08-25T05:38:10;6.17;;;4.70;;
11699;SDS011;5906;51.660;6.674;2022-08-25T05:40:41;8.83;;;5.30;;
11699;SDS011;5906;51.660;6.674;2022-08-25T05:43:07;6.43;;;5.00;;
11699;SDS011;5906;51.660;6.674;2022-08-25T05:45:35;7.53;;;4.83;;
11699;SDS011;5906;51.660;6.674;2022-08-25T05:48:02;8.67;;;4.83;;
11699;SDS011;5906;51.660;6.674;2022-08-25T05:50:29;6.33;;;4.90;;
11699;SDS011;5906;51.660;6.674;2022-08-25T05:52:55;9.57;;;4.97;;
11699;SDS011;5906;51.660;6.674;2022-08-25T05:55:22;7.93;;;5.30;;
11699;SDS011;5906;51.660;6.674;2022-08-25T05:57:49;9.17;;;5.40;;
11699;SDS011;5906;51.660;6.674;2022-08-25T06:00:16;7.00;;;5.20;;
11699;SDS011;5906;51.660;6.674;2022-08-25T06:02:43;11.87;;;5.27;;
11699;SDS011;5906;51.660;6.674;2022-08-25T06:05:18;11.50;;;4.67;;
11699;SDS011;5906;51.660;6.674;2022-08-25T06:07:47;7.33;;;5.37;;
11699;SDS011;5906;51.660;6.674;2022-08-25T06:10:16;5.13;;;4.63;;
11699;SDS011;5906;51.660;6.674;2022-08-25T06:12:45;8.90;;;5.10;;
11699;SDS011;5906;51.660;6.674;2022-08-25T06:15:15;8.40;;;5.20;;
11699;SDS011;5906;51.660;6.674;2022-08-25T06:17:47;13.90;;;4.90;;
11699;SDS011;5906;51.660;6.674;2022-08-25T06:20:15;6.87;;;5.27;;
11699;SDS011;5906;51.660;6.674;2022-08-25T06:22:50;12.37;;;5.43;;
11699;SDS011;5906;51.660;6.674;2022-08-25T06:25:19;6.73;;;5.30;;
11699;SDS011;5906;51.660;6.674;2022-08-25T06:27:47;6.47;;;4.60;;
11699;SDS011;5906;51.660;6.674;2022-08-25T06:30:16;9.30;;;5.20;;
11699;SDS011;5906;51.660;6.674;2022-08-25T06:32:49;12.03;;;5.60;;
11699;SDS011;5906;51.660;6.674;2022-08-25T06:35:17;10.40;;;5.60;;
11699;SDS011;5906;51.660;6.674;2022-08-25T06:37:45;6.70;;;4.80;;
11699;SDS011;5906;51.660;6.674;2022-08-25T06:40:13;6.43;;;4.87;;
11699;SDS011;5906;51.660;6.674;2022-08-25T06:42:41;8.80;;;4.57;;
11699;SDS011;5906;51.660;6.674;2022-08-25T06:45:13;7.10;;;4.50;;
11699;SDS011;5906;51.660;6.674;2022-08-25T06:47:40;5.73;;;4.60;;
11699;SDS011;5906;51.660;6.674;2022-08-25T06:50:10;7.03;;;5.10;;
11699;SDS011;5906;51.660;6.674;2022-08-25T06:52:37;4.40;;;4.00;;
11699;SDS011;5906;51.660;6.674;2022-08-25T06:55:04;10.50;;;4.50;;
11699;SDS011;5906;51.660;6.674;2022-08-25T06:57:31;6.87;;;4.80;;
11699;SDS011;5906;51.660;6.674;2022-08-25T07:00:02;5.20;;;4.60;;
11699;SDS011;5906;51.660;6.674;2022-08-25T07:02:31;5.40;;;4.33;;
11699;SDS011;5906;51.660;6.674;2022-08-25T07:05:00;9.40;;;4.20;;
11699;SDS011;5906;51.660;6.674;2022-08-25T07:07:29;5.87;;;4.50;;
11699;SDS011;5906;51.660;6.674;2022-08-25T07:10:09;16.93;;;4.20;;
11699;SDS011;5906;51.660;6.674;2022-08-25T07:12:36;5.43;;;4.20;;
11699;SDS011;5906;51.660;6.674;2022-08-25T07:15:03;6.73;;;4.10;;
11699;SDS011;5906;51.660;6.674;2022-08-25T07:17:46;13.20;;;4.07;;
11699;SDS011;5906;51.660;6.674;2022-08-25T07:20:14;4.60;;;4.00;;
11699;SDS011;5906;51.660;6.674;2022-08-25T07:22:44;8.10;;;3.77;;
11699;SDS011;5906;51.660;6.674;2022-08-25T07:25:11;7.60;;;4.80;;
11699;SDS011;5906;51.660;6.674;2022-08-25T07:27:40;12.03;;;4.23;;
11699;SDS011;5906;51.660;6.674;2022-08-25T07:30:08;5.80;;;4.07;;
11699;SDS011;5906;51.660;6.674;2022-08-25T07:32:36;6.40;;;4.00;;
11699;SDS011;5906;51.660;6.674;2022-08-25T07:35:08;9.77;;;4.30;;
11699;SDS011;5906;51.660;6.674;2022-08-25T07:37:51;5.27;;;3.83;;
11699;SDS011;5906;51.660;6.674;2022-08-25T07:40:27;4.83;;;4.17;;
11699;SDS011;5906;51.660;6.674;2022-08-25T07:42:55;4.40;;;4.00;;
11699;SDS011;5906;51.660;6.674;2022-08-25T07:45:25;10.40;;;4.13;;
11699;SDS011;5906;51.660;6.674;2022-08-25T07:47:57;9.53;;;4.50;;
11699;SDS011;5906;51.660;6.674;2022-08-25T07:50:27;6.43;;;4.43;;
11699;SDS011;5906;51.660;6.674;2022-08-25T07:52:55;5.87;;;4.40;;
11699;SDS011;5906;51.660;6.674;2022-08-25T07:55:23;8.23;;;3.80;;
11699;SDS011;5906;51.660;6.674;2022-08-25T07:57:52;5.60;;;4.00;;
11699;SDS011;5906;51.660;6.674;2022-08-25T08:00:37;5.53;;;3.67;;
11699;SDS011;5906;51.660;6.674;2022-08-25T08:03:04;5.77;;;3.70;;
11699;SDS011;5906;51.660;6.674;2022-08-25T08:05:41;5.33;;;3.93;;
11699;SDS011;5906;51.660;6.674;2022-08-25T08:08:07;14.03;;;4.23;;
11699;SDS011;5906;51.660;6.674;2022-08-25T08:10:37;4.87;;;3.70;;
11699;SDS011;5906;51.660;6.674;2022-08-25T08:13:25;5.07;;;3.57;;
11699;SDS011;5906;51.660;6.674;2022-08-25T08:15:51;4.17;;;3.40;;
11699;SDS011;5906;51.660;6.674;2022-08-25T08:18:18;4.20;;;3.60;;
11699;SDS011;5906;51.660;6.674;2022-08-25T08:20:46;5.43;;;4.13;;
11699;SDS011;5906;51.660;6.674;2022-08-25T08:23:14;4.57;;;3.87;;
11699;SDS011;5906;51.660;6.674;2022-08-25T08:25:42;5.50;;;3.63;;
11699;SDS011;5906;51.660;6.674;2022-08-25T08:28:09;5.30;;;3.47;;
11699;SDS011;5906;51.660;6.674;2022-08-25T08:30:39;7.63;;;4.10;;
11699;SDS011;5906;51.660;6.674;2022-08-25T08:33:19;5.77;;;3.50;;
11699;SDS011;5906;51.660;6.674;2022-08-25T08:35:46;4.90;;;3.67;;
11699;SDS011;5906;51.660;6.674;2022-08-25T08:38:13;5.60;;;4.10;;
11699;SDS011;5906;51.660;6.674;2022-08-25T08:40:52;5.80;;;3.87;;
11699;SDS011;5906;51.660;6.674;2022-08-25T08:43:52;7.87;;;3.77;;
11699;SDS011;5906;51.660;6.674;2022-08-25T08:46:24;7.70;;;3.80;;
11699;SDS011;5906;51.660;6.674;2022-08-25T08:51:30;9.47;;;3.57;;
11699;SDS011;5906;51.660;6.674;2022-08-25T08:54:12;9.27;;;3.67;;
11699;SDS011;5906;51.660;6.674;2022-08-25T08:56:44;8.17;;;3.70;;
11699;SDS011;5906;51.660;6.674;2022-08-25T08:59:16;6.03;;;3.60;;
11699;SDS011;5906;51.660;6.674;2022-08-25T09:01:48;4.43;;;3.10;;
11699;SDS011;5906;51.660;6.674;2022-08-25T09:04:26;6.00;;;3.90;;
11699;SDS011;5906;51.660;6.674;2022-08-25T09:06:58;8.80;;;3.17;;
11699;SDS011;5906;51.660;6.674;2022-08-25T09:09:29;4.63;;;3.83;;
11699;SDS011;5906;51.660;6.674;2022-08-25T09:18:25;4.13;;;3.27;;
11699;SDS011;5906;51.660;6.674;2022-08-25T09:29:23;3.40;;;3.10;;
11699;SDS011;5906;51.660;6.674;2022-08-25T09:31:52;4.75;;;4.00;;
11699;SDS011;5906;51.660;6.674;2022-08-25T09:34:29;4.25;;;3.13;;
11699;SDS011;5906;51.660;6.674;2022-08-25T09:36:58;6.20;;;3.42;;
11699;SDS011;5906;51.660;6.674;2022-08-25T09:39:26;4.15;;;3.40;;
11699;SDS011;5906;51.660;6.674;2022-08-25T09:41:57;4.20;;;3.55;;
11699;SDS011;5906;51.660;6.674;2022-08-25T09:44:26;4.47;;;3.10;;
11699;SDS011;5906;51.660;6.674;2022-08-25T09:47:06;6.82;;;3.30;;
11699;SDS011;5906;51.660;6.674;2022-08-25T09:49:45;4.65;;;3.45;;
11699;SDS011;5906;51.660;6.674;2022-08-25T09:52:16;3.92;;;3.47;;
11699;SDS011;5906;51.660;6.674;2022-08-25T09:54:54;4.10;;;3.25;;
11699;SDS011;5906;51.660;6.674;2022-08-25T09:57:32;5.32;;;3.78;;
11699;SDS011;5906;51.660;6.674;2022-08-25T10:02:35;4.57;;;3.50;;
11699;SDS011;5906;51.660;6.674;2022-08-25T10:05:19;5.35;;;3.20;;
11699;SDS011;5906;51.660;6.674;2022-08-25T10:07:53;3.70;;;3.17;;
11699;SDS011;5906;51.660;6.674;2022-08-25T10:10:33;5.45;;;3.22;;
11699;SDS011;5906;51.660;6.674;2022-08-25T10:13:14;5.07;;;3.15;;
11699;SDS011;5906;51.660;6.674;2022-08-25T10:16:01;3.38;;;3.08;;
11699;SDS011;5906;51.660;6.674;2022-08-25T10:21:35;3.08;;;2.78;;
11699;SDS011;5906;51.660;6.674;2022-08-25T10:24:05;3.40;;;3.10;;
11699;SDS011;5906;51.660;6.674;2022-08-25T10:29:27;5.60;;;3.22;;
11699;SDS011;5906;51.660;6.674;2022-08-25T10:32:12;6.93;;;3.10;;
11699;SDS011;5906;51.660;6.674;2022-08-25T10:34:54;4.43;;;2.70;;
11699;SDS011;5906;51.660;6.674;2022-08-25T10:37:27;6.63;;;2.92;;
11699;SDS011;5906;51.660;6.674;2022-08-25T10:42:51;4.18;;;3.45;;
11699;SDS011;5906;51.660;6.674;2022-08-25T10:45:20;3.53;;;2.85;;
11699;SDS011;5906;51.660;6.674;2022-08-25T10:48:19;9.90;;;3.35;;
11699;SDS011;5906;51.660;6.674;2022-08-25T10:51:10;3.97;;;3.10;;
11699;SDS011;5906;51.660;6.674;2022-08-25T10:56:45;2.88;;;2.55;;
11699;SDS011;5906;51.660;6.674;2022-08-25T10:59:46;3.15;;;2.85;;
11699;SDS011;5906;51.660;6.674;2022-08-25T11:08:03;3.03;;;2.50;;
11699;SDS011;5906;51.660;6.674;2022-08-25T11:10:41;8.35;;;2.25;;
11699;SDS011;5906;51.660;6.674;2022-08-25T11:13:17;3.13;;;2.83;;
11699;SDS011;5906;51.660;6.674;2022-08-25T11:15:58;3.03;;;2.78;;
11699;SDS011;5906;51.660;6.674;2022-08-25T11:18:45;4.20;;;2.40;;
11699;SDS011;5906;51.660;6.674;2022-08-25T11:21:21;8.30;;;2.70;;
11699;SDS011;5906;51.660;6.674;2022-08-25T11:23:57;4.05;;;3.08;;
11699;SDS011;5906;51.660;6.674;2022-08-25T11:26:34;6.57;;;3.10;;
11699;SDS011;5906;51.660;6.674;2022-08-25T11:29:13;3.65;;;2.83;;
11699;SDS011;5906;51.660;6.674;2022-08-25T11:31:50;5.00;;;2.60;;
11699;SDS011;5906;51.660;6.674;2022-08-25T11:34:19;3.22;;;2.83;;
11699;SDS011;5906;51.660;6.674;2022-08-25T11:36:54;4.15;;;2.40;;
11699;SDS011;5906;51.660;6.674;2022-08-25T11:39:59;2.90;;;2.20;;
11699;SDS011;5906;51.660;6.674;2022-08-25T11:42:53;2.75;;;2.35;;
11699;SDS011;5906;51.660;6.674;2022-08-25T11:46:02;2.63;;;2.03;;
11699;SDS011;5906;51.660;6.674;2022-08-25T11:51:51;3.05;;;2.60;;
11699;SDS011;5906;51.660;6.674;2022-08-25T11:54:20;3.20;;;2.38;;
11699;SDS011;5906;51.660;6.674;2022-08-25T11:56:59;2.65;;;2.17;;
11699;SDS011;5906;51.660;6.674;2022-08-25T12:04:58;2.22;;;2.00;;
11699;SDS011;5906;51.660;6.674;2022-08-25T12:07:31;2.40;;;2.10;;
11699;SDS011;5906;51.660;6.674;2022-08-25T12:10:55;2.97;;;2.67;;
11699;SDS011;5906;51.660;6.674;2022-08-25T12:13:38;2.53;;;2.28;;
11699;SDS011;5906;51.660;6.674;2022-08-25T12:16:43;2.58;;;2.38;;
11699;SDS011;5906;51.660;6.674;2022-08-25T12:38:16;4.47;;;1.90;;
11699;SDS011;5906;51.660;6.674;2022-08-25T12:40:57;3.60;;;2.03;;
11699;SDS011;5906;51.660;6.674;2022-08-25T12:43:33;2.50;;;2.30;;
11699;SDS011;5906;51.660;6.674;2022-08-25T12:48:58;3.15;;;2.70;;
11699;SDS011;5906;51.660;6.674;2022-08-25T12:59:56;4.43;;;2.88;;
11699;SDS011;5906;51.660;6.674;2022-08-25T13:05:32;3.00;;;2.70;;
11699;SDS011;5906;51.660;6.674;2022-08-25T13:10:54;2.92;;;2.72;;
11699;SDS011;5906;51.660;6.674;2022-08-25T13:13:50;3.83;;;2.80;;
11699;SDS011;5906;51.660;6.674;2022-08-25T13:16:35;4.70;;;3.08;;
11699;SDS011;5906;51.660;6.674;2022-08-25T13:19:03;5.15;;;2.88;;
11699;SDS011;5906;51.660;6.674;2022-08-25T13:21:33;3.47;;;2.75;;
11699;SDS011;5906;51.660;6.674;2022-08-25T13:24:04;3.60;;;2.80;;
11699;SDS011;5906;51.660;6.674;2022-08-25T13:26:38;3.38;;;3.10;;
11699;SDS011;5906;51.660;6.674;2022-08-25T13:29:15;3.40;;;3.08;;
11699;SDS011;5906;51.660;6.674;2022-08-25T13:34:21;5.53;;;2.50;;
11699;SDS011;5906;51.660;6.674;2022-08-25T13:37:07;3.42;;;2.80;;
11699;SDS011;5906;51.660;6.674;2022-08-25T13:42:57;5.75;;;3.10;;
11699;SDS011;5906;51.660;6.674;2022-08-25T13:45:28;3.85;;;3.45;;
11699;SDS011;5906;51.660;6.674;2022-08-25T13:47:57;4.20;;;3.08;;
11699;SDS011;5906;51.660;6.674;2022-08-25T13:52:53;4.32;;;3.40;;
11699;SDS011;5906;51.660;6.674;2022-08-25T13:55:25;3.35;;;3.05;;
11699;SDS011;5906;51.660;6.674;2022-08-25T13:58:20;6.00;;;3.22;;
11699;SDS011;5906;51.660;6.674;2022-08-25T14:01:14;2.92;;;2.72;;
11699;SDS011;5906;51.660;6.674;2022-08-25T14:04:19;3.10;;;2.90;;
11699;SDS011;5906;51.660;6.674;2022-08-25T14:17:45;5.00;;;3.10;;
11699;SDS011;5906;51.660;6.674;2022-08-25T14:20:21;4.93;;;3.13;;
11699;SDS011;5906;51.660;6.674;2022-08-25T14:22:55;4.57;;;3.22;;
11699;SDS011;5906;51.660;6.674;2022-08-25T14:25:25;4.85;;;3.40;;
11699;SDS011;5906;51.660;6.674;2022-08-25T14:27:53;4.70;;;3.53;;
11699;SDS011;5906;51.660;6.674;2022-08-25T14:30:34;9.98;;;3.83;;
11699;SDS011;5906;51.660;6.674;2022-08-25T14:33:04;4.13;;;3.42;;
11699;SDS011;5906;51.660;6.674;2022-08-25T14:35:32;3.90;;;3.47;;
11699;SDS011;5906;51.660;6.674;2022-08-25T14:38:01;3.80;;;3.10;;
11699;SDS011;5906;51.660;6.674;2022-08-25T14:40:33;4.13;;;3.70;;
11699;SDS011;5906;51.660;6.674;2022-08-25T14:43:00;5.30;;;4.35;;
11699;SDS011;5906;51.660;6.674;2022-08-25T14:45:27;3.85;;;3.53;;
11699;SDS011;5906;51.660;6.674;2022-08-25T14:47:56;5.25;;;3.30;;
11699;SDS011;5906;51.660;6.674;2022-08-25T14:50:35;4.20;;;3.80;;
11699;SDS011;5906;51.660;6.674;2022-08-25T14:53:07;3.50;;;3.20;;
11699;SDS011;5906;51.660;6.674;2022-08-25T14:55:36;3.67;;;3.38;;
11699;SDS011;5906;51.660;6.674;2022-08-25T14:58:05;5.57;;;3.58;;
11699;SDS011;5906;51.660;6.674;2022-08-25T15:00:33;3.38;;;3.08;;
11699;SDS011;5906;51.660;6.674;2022-08-25T15:03:02;5.00;;;3.13;;
11699;SDS011;5906;51.660;6.674;2022-08-25T15:05:29;7.20;;;3.50;;
11699;SDS011;5906;51.660;6.674;2022-08-25T15:07:57;5.25;;;3.92;;
11699;SDS011;5906;51.660;6.674;2022-08-25T15:10:42;4.72;;;3.55;;
11699;SDS011;5906;51.660;6.674;2022-08-25T15:13:09;6.40;;;3.70;;
11699;SDS011;5906;51.660;6.674;2022-08-25T15:15:37;4.15;;;3.75;;
11699;SDS011;5906;51.660;6.674;2022-08-25T15:18:18;4.63;;;3.50;;
11699;SDS011;5906;51.660;6.674;2022-08-25T15:20:47;6.78;;;3.00;;
11699;SDS011;5906;51.660;6.674;2022-08-25T15:23:16;4.07;;;3.67;;
11699;SDS011;5906;51.660;6.674;2022-08-25T15:25:47;3.72;;;3.42;;
11699;SDS011;5906;51.660;6.674;2022-08-25T15:28:18;3.80;;;3.17;;
11699;SDS011;5906;51.660;6.674;2022-08-25T15:30:47;5.15;;;3.45;;
11699;SDS011;5906;51.660;6.674;2022-08-25T15:33:15;5.47;;;3.72;;
11699;SDS011;5906;51.660;6.674;2022-08-25T15:35:42;4.85;;;3.55;;
11699;SDS011;5906;51.660;6.674;2022-08-25T15:38:10;3.38;;;3.08;;
11699;SDS011;5906;51.660;6.674;2022-08-25T15:40:37;4.47;;;3.60;;
11699;SDS011;5906;51.660;6.674;2022-08-25T15:43:04;5.70;;;3.50;;
11699;SDS011;5906;51.660;6.674;2022-08-25T15:45:32;6.63;;;3.30;;
11699;SDS011;5906;51.660;6.674;2022-08-25T15:48:01;4.13;;;3.72;;
11699;SDS011;5906;51.660;6.674;2022-08-25T15:50:31;4.22;;;3.28;;
11699;SDS011;5906;51.660;6.674;2022-08-25T15:52:59;4.55;;;4.00;;
11699;SDS011;5906;51.660;6.674;2022-08-25T15:55:26;5.80;;;3.58;;
11699;SDS011;5906;51.660;6.674;2022-08-25T15:57:54;7.20;;;5.95;;
11699;SDS011;5906;51.660;6.674;2022-08-25T16:00:21;5.70;;;3.45;;
11699;SDS011;5906;51.660;6.674;2022-08-25T16:02:48;6.88;;;3.78;;
11699;SDS011;5906;51.660;6.674;2022-08-25T16:05:15;3.53;;;3.22;;
11699;SDS011;5906;51.660;6.674;2022-08-25T16:07:45;7.32;;;6.18;;
11699;SDS011;5906;51.660;6.674;2022-08-25T16:10:17;11.30;;;8.93;;
11699;SDS011;5906;51.660;6.674;2022-08-25T16:12:45;12.18;;;6.88;;
11699;SDS011;5906;51.660;6.674;2022-08-25T16:15:13;4.85;;;4.28;;
11699;SDS011;5906;51.660;6.674;2022-08-25T16:17:41;6.65;;;4.93;;
11699;SDS011;5906;51.660;6.674;2022-08-25T16:20:14;4.18;;;3.78;;
11699;SDS011;5906;51.660;6.674;2022-08-25T16:22:43;3.55;;;3.25;;
11699;SDS011;5906;51.660;6.674;2022-08-25T16:25:10;3.42;;;3.08;;
11699;SDS011;5906;51.660;6.674;2022-08-25T16:27:37;6.18;;;3.50;;
11699;SDS011;5906;51.660;6.674;2022-08-25T16:30:08;3.50;;;3.20;;
11699;SDS011;5906;51.660;6.674;2022-08-25T16:32:43;3.80;;;3.10;;
11699;SDS011;5906;51.660;6.674;2022-08-25T16:35:10;5.10;;;4.03;;
11699;SDS011;5906;51.660;6.674;2022-08-25T16:37:38;3.72;;;3.33;;
11699;SDS011;5906;51.660;6.674;2022-08-25T16:40:08;6.72;;;3.58;;
11699;SDS011;5906;51.660;6.674;2022-08-25T16:42:40;6.65;;;4.40;;
11699;SDS011;5906;51.660;6.674;2022-08-25T16:45:07;3.92;;;3.58;;
11699;SDS011;5906;51.660;6.674;2022-08-25T16:47:34;6.93;;;3.55;;
11699;SDS011;5906;51.660;6.674;2022-08-25T16:50:04;4.55;;;3.88;;
11699;SDS011;5906;51.660;6.674;2022-08-25T16:52:36;3.85;;;3.45;;
11699;SDS011;5906;51.660;6.674;2022-08-25T16:55:23;5.47;;;3.78;;
11699;SDS011;5906;51.660;6.674;2022-08-25T16:57:51;7.13;;;4.10;;
11699;SDS011;5906;51.660;6.674;2022-08-25T17:00:21;4.07;;;3.60;;
11699;SDS011;5906;51.660;6.674;2022-08-25T17:02:54;4.50;;;4.10;;
11699;SDS011;5906;51.660;6.674;2022-08-25T17:05:25;6.00;;;4.05;;
11699;SDS011;5906;51.660;6.674;2022-08-25T17:07:53;5.20;;;3.90;;
11699;SDS011;5906;51.660;6.674;2022-08-25T17:10:40;4.38;;;3.78;;
11699;SDS011;5906;51.660;6.674;2022-08-25T17:13:08;9.60;;;3.90;;
11699;SDS011;5906;51.660;6.674;2022-08-25T17:15:40;10.70;;;4.03;;